This is the latest recevied weather packets stored in our database for station/object KB1JLI. If no packets are shown the sender has not sent any weather packets the latest 10 day(s).
| Time | Temp. | Humidity | Pressure | Rain* | Wind** | Luminosity | Snow |
|---|---|---|---|---|---|---|---|
| 1777216270 | 13.33° C | 42% | 1020.8 hPa | 0 mm | - | 429 W/m² | - |
| 1777215969 | 13.33° C | 42% | 1020.9 hPa | 0 mm | - | 266 W/m² | - |
| 1777215664 | 13.89° C | 40% | 1020.8 hPa | 0 mm | - | 236 W/m² | - |
| 1777215359 | 13.33° C | 43% | 1020.8 hPa | 0 mm | - | 265 W/m² | - |
| 1777215056 | 13.89° C | 42% | 1020.8 hPa | 0 mm | - | 314 W/m² | - |
| 1777214755 | 13.33° C | 43% | 1020.7 hPa | 0 mm | - | 326 W/m² | - |
| 1777214454 | 13.33° C | 41% | 1020.8 hPa | 0 mm | - | 291 W/m² | - |
| 1777214149 | 13.33° C | 45% | 1020.6 hPa | 0 mm | - | 307 W/m² | - |
| 1777213844 | 12.78° C | 45% | 1020.7 hPa | 0 mm | - | 255 W/m² | - |
| 1777213539 | 12.78° C | 43% | 1020.8 hPa | 0 mm | - | 291 W/m² | - |
| 1777213237 | 12.78° C | 45% | 1020.9 hPa | 0 mm | - | 262 W/m² | - |
| 1777212933 | 12.78° C | 46% | 1020.8 hPa | 0 mm | - | 245 W/m² | - |
| 1777212631 | 12.78° C | 47% | 1020.6 hPa | 0 mm | - | 245 W/m² | - |
| 1777212329 | 12.78° C | 45% | 1020.8 hPa | 0 mm | - | 239 W/m² | - |
| 1777212025 | 12.78° C | 46% | 1020.8 hPa | 0 mm | - | 227 W/m² | - |
| 1777211721 | 12.78° C | 46% | 1020.5 hPa | 0 mm | - | 224 W/m² | - |
| 1777211420 | 13.33° C | 45% | 1020.6 hPa | 0 mm | - | 224 W/m² | - |
| 1777211115 | 12.78° C | 48% | 1020.5 hPa | 0 mm | - | 246 W/m² | - |
| 1777210812 | 12.78° C | 48% | 1020.3 hPa | 0 mm | - | 287 W/m² | - |
| 1777210511 | 12.78° C | 48% | 1020.4 hPa | 0 mm | - | 285 W/m² | - |
| 1777210209 | 12.22° C | 49% | 1020.4 hPa | 0 mm | - | 251 W/m² | - |
| 1777209905 | 12.78° C | 50% | 1020.3 hPa | 0 mm | - | 359 W/m² | - |
| 1777209600 | 12.22° C | 53% | 1020.3 hPa | 0 mm | - | 277 W/m² | - |
| 1777209295 | 11.67° C | 54% | 1020.2 hPa | 0 mm | - | 256 W/m² | - |
| 1777208993 | 11.67° C | 55% | 1020.3 hPa | 0 mm | - | 233 W/m² | - |
* Rain latest hour (hover to see other rain measurements)
** Current wind speed in m/s (hover to see current wind gust speed)